createdAt,value
2023-03-13T00:00:40.865Z,3.10
2023-03-13T00:01:46.915Z,3.80
2023-03-13T00:02:50.616Z,3.25
2023-03-13T00:03:55.526Z,3.28
2023-03-13T00:04:59.382Z,3.58
2023-03-13T00:07:05.601Z,3.60
2023-03-13T00:08:09.602Z,3.08
2023-03-13T00:09:14.518Z,3.42
2023-03-13T00:10:17.310Z,4.07
2023-03-13T00:11:20.889Z,3.15
2023-03-13T00:12:23.514Z,3.40
2023-03-13T00:13:27.117Z,3.58
2023-03-13T00:14:29.574Z,3.55
2023-03-13T00:15:33.460Z,3.75
2023-03-13T00:16:37.788Z,3.47
2023-03-13T00:17:41.411Z,3.28
2023-03-13T00:18:47.552Z,3.80
2023-03-13T00:19:52.002Z,3.53
2023-03-13T00:20:59.404Z,3.90
2023-03-13T00:22:03.132Z,3.90
2023-03-13T00:24:13.956Z,3.80
2023-03-13T00:25:16.657Z,3.85
2023-03-13T00:26:22.329Z,4.60
2023-03-13T00:27:24.911Z,4.40
2023-03-13T00:28:32.541Z,3.90
2023-03-13T00:29:35.326Z,3.80
2023-03-13T00:30:38.910Z,3.78
2023-03-13T00:32:46.441Z,4.53
2023-03-13T00:33:52.081Z,4.05
2023-03-13T00:34:55.693Z,4.25
2023-03-13T00:36:02.408Z,4.00
2023-03-13T00:37:06.200Z,4.38
2023-03-13T00:38:08.794Z,4.07
2023-03-13T00:39:13.865Z,3.50
2023-03-13T00:40:16.598Z,4.22
2023-03-13T00:41:21.910Z,4.30
2023-03-13T00:42:24.539Z,4.75
2023-03-13T00:43:28.183Z,4.25
2023-03-13T00:44:31.240Z,3.55
2023-03-13T00:45:34.836Z,4.63
2023-03-13T00:46:38.834Z,4.22
2023-03-13T00:47:41.531Z,4.25
2023-03-13T00:48:45.470Z,4.93
2023-03-13T00:49:48.067Z,5.15
2023-03-13T00:50:51.978Z,4.40
2023-03-13T00:51:54.631Z,4.70
2023-03-13T00:52:58.326Z,4.63
2023-03-13T00:55:07.084Z,5.03
2023-03-13T00:56:11.530Z,5.28
2023-03-13T00:57:15.220Z,4.05
2023-03-13T00:58:17.839Z,3.80
2023-03-13T00:59:21.528Z,4.22
2023-03-13T01:00:24.316Z,4.18
2023-03-13T01:01:29.960Z,4.45
2023-03-13T01:02:32.724Z,4.10
2023-03-13T01:03:37.146Z,4.78
2023-03-13T01:04:39.694Z,4.32
2023-03-13T01:05:43.283Z,4.43
2023-03-13T01:06:45.825Z,4.22
2023-03-13T01:07:49.426Z,4.32
2023-03-13T01:08:52.302Z,4.00
2023-03-13T01:09:56.265Z,4.03
2023-03-13T01:11:01.591Z,3.70
2023-03-13T01:12:05.662Z,4.40
2023-03-13T01:13:08.197Z,3.80
2023-03-13T01:14:14.718Z,3.97
2023-03-13T01:15:19.809Z,3.70
2023-03-13T01:16:23.698Z,4.70
2023-03-13T01:17:26.222Z,4.28
2023-03-13T01:18:29.925Z,4.75
2023-03-13T01:19:32.455Z,4.55
2023-03-13T01:20:36.082Z,4.07
2023-03-13T01:21:38.741Z,3.75
2023-03-13T01:22:42.395Z,4.47
2023-03-13T01:23:45.269Z,4.13
2023-03-13T01:24:52.574Z,4.00
2023-03-13T01:25:55.679Z,4.07
2023-03-13T01:27:00.712Z,4.60
2023-03-13T01:28:03.650Z,4.30
2023-03-13T01:29:07.511Z,3.83
2023-03-13T01:30:12.148Z,4.63
2023-03-13T01:31:17.844Z,4.97
2023-03-13T01:32:20.646Z,4.38
2023-03-13T01:33:24.451Z,4.40
2023-03-13T01:34:27.236Z,4.18
2023-03-13T01:35:31.025Z,4.90
2023-03-13T01:36:35.598Z,4.03
2023-03-13T01:37:39.210Z,4.45
2023-03-13T01:38:41.869Z,4.00
2023-03-13T01:39:45.585Z,4.30
2023-03-13T01:41:52.249Z,4.18
2023-03-13T01:42:58.335Z,3.83
2023-03-13T01:44:02.534Z,3.92
2023-03-13T01:45:06.041Z,5.55
2023-03-13T01:46:18.118Z,5.03
2023-03-13T01:47:20.990Z,16.52
2023-03-13T01:48:28.862Z,19.20
2023-03-13T01:49:34.984Z,11.25
2023-03-13T01:50:37.677Z,8.05
2023-03-13T01:51:45.196Z,9.23
2023-03-13T01:52:47.756Z,6.35
2023-03-13T01:53:58.174Z,5.45
2023-03-13T01:55:04.563Z,8.02
2023-03-13T01:56:12.328Z,3.78
2023-03-13T01:57:20.696Z,3.60
2023-03-13T01:58:25.423Z,3.22
2023-03-13T01:59:33.549Z,3.80
2023-03-13T02:00:39.365Z,2.80
2023-03-13T02:01:45.424Z,3.40
2023-03-13T02:02:50.480Z,3.13
2023-03-13T02:03:55.455Z,3.33
2023-03-13T02:05:02.237Z,3.28
2023-03-13T02:06:07.843Z,3.25
2023-03-13T02:07:15.688Z,3.13
2023-03-13T02:08:23.115Z,3.20
2023-03-13T02:09:30.601Z,3.28
2023-03-13T02:10:39.509Z,3.05
2023-03-13T02:11:50.376Z,3.35
2023-03-13T02:12:54.259Z,3.20
2023-03-13T02:14:00.756Z,3.47
2023-03-13T02:15:06.468Z,3.20
2023-03-13T02:16:11.089Z,3.92
2023-03-13T02:17:14.187Z,3.45
2023-03-13T02:18:19.341Z,3.13
2023-03-13T02:19:30.807Z,3.00
2023-03-13T02:20:34.645Z,3.55
2023-03-13T02:21:44.070Z,3.03
2023-03-13T02:22:55.538Z,3.15
2023-03-13T02:24:03.765Z,3.05
2023-03-13T02:25:14.606Z,3.33
2023-03-13T02:26:18.721Z,2.83
2023-03-13T02:27:22.442Z,2.50
2023-03-13T02:28:28.189Z,3.10
2023-03-13T02:29:32.557Z,3.15
2023-03-13T02:30:35.774Z,3.15
2023-03-13T02:31:39.548Z,3.20
2023-03-13T02:33:46.133Z,2.80
2023-03-13T02:34:52.015Z,2.60
2023-03-13T02:35:56.782Z,2.60
2023-03-13T02:37:00.576Z,2.47
2023-03-13T02:38:07.937Z,2.80
2023-03-13T02:39:14.169Z,2.83
2023-03-13T02:40:23.206Z,2.83
2023-03-13T02:41:29.950Z,2.63
2023-03-13T02:42:32.790Z,3.25
2023-03-13T02:43:38.608Z,3.53
2023-03-13T02:44:42.054Z,2.95
2023-03-13T02:46:02.854Z,3.15
2023-03-13T02:47:06.730Z,2.88
2023-03-13T02:48:09.481Z,3.85
2023-03-13T02:49:22.689Z,2.92
2023-03-13T02:50:25.350Z,3.35
2023-03-13T02:51:33.265Z,3.95
2023-03-13T02:52:39.472Z,3.30
2023-03-13T02:53:44.827Z,2.50
2023-03-13T02:54:50.081Z,2.67
2023-03-13T02:55:54.096Z,2.83
2023-03-13T02:57:01.586Z,2.90
2023-03-13T02:58:05.662Z,3.13
2023-03-13T02:59:08.338Z,2.95
2023-03-13T03:00:13.570Z,2.72
2023-03-13T03:01:16.114Z,2.97
2023-03-13T03:02:19.794Z,3.28
2023-03-13T03:03:22.424Z,3.75
2023-03-13T03:04:28.011Z,3.25
2023-03-13T03:05:30.475Z,2.70
2023-03-13T03:06:34.189Z,5.50
2023-03-13T03:08:41.716Z,3.92
2023-03-13T03:09:44.252Z,4.30
2023-03-13T03:10:47.960Z,2.90
2023-03-13T03:11:51.182Z,3.42
2023-03-13T03:12:56.246Z,3.30
2023-03-13T03:13:58.917Z,3.00
2023-03-13T03:15:04.871Z,3.25
2023-03-13T03:16:08.625Z,3.15
2023-03-13T03:18:14.473Z,3.00
2023-03-13T03:19:18.291Z,2.92
2023-03-13T03:21:24.407Z,3.13
2023-03-13T03:22:27.042Z,3.20
2023-03-13T03:23:30.708Z,3.08
2023-03-13T03:24:33.363Z,3.25
2023-03-13T03:25:37.201Z,2.72
2023-03-13T03:26:39.721Z,3.45
2023-03-13T03:27:43.474Z,3.15
2023-03-13T03:29:51.212Z,3.08
2023-03-13T03:31:58.340Z,3.22
2023-03-13T03:33:03.221Z,3.05
2023-03-13T03:34:06.943Z,3.47
2023-03-13T03:35:10.016Z,3.45
2023-03-13T03:36:15.809Z,3.38
2023-03-13T03:37:18.582Z,3.10
2023-03-13T03:38:22.346Z,3.70
2023-03-13T03:40:28.625Z,3.78
2023-03-13T03:41:31.455Z,3.67
2023-03-13T03:42:35.243Z,2.67
2023-03-13T03:44:42.966Z,2.05
2023-03-13T03:45:45.763Z,3.47
2023-03-13T03:46:49.466Z,3.38
2023-03-13T03:47:52.073Z,3.00
2023-03-13T03:48:56.051Z,2.83
2023-03-13T03:49:58.884Z,2.85
2023-03-13T03:51:02.622Z,3.03
2023-03-13T03:53:08.640Z,2.58
2023-03-13T03:54:11.148Z,2.70
2023-03-13T03:55:14.902Z,2.33
2023-03-13T03:57:20.936Z,2.60
2023-03-13T03:59:26.860Z,2.30
2023-03-13T04:00:30.850Z,2.45
2023-03-13T04:01:34.676Z,2.70
2023-03-13T04:02:37.488Z,3.10
2023-03-13T04:03:41.156Z,2.63
2023-03-13T04:04:43.836Z,3.10
2023-03-13T04:05:47.407Z,2.78
2023-03-13T04:06:50.058Z,2.95
2023-03-13T04:07:53.672Z,2.33
2023-03-13T04:08:56.474Z,3.00
2023-03-13T04:10:00.150Z,3.05
2023-03-13T04:11:03.112Z,2.90
2023-03-13T04:12:07.376Z,3.10
2023-03-13T04:13:10.047Z,3.28
2023-03-13T04:14:13.655Z,3.42
2023-03-13T04:15:16.299Z,3.83
2023-03-13T04:16:21.514Z,6.20
2023-03-13T04:17:24.371Z,7.75
2023-03-13T04:18:27.969Z,6.88
2023-03-13T04:19:30.499Z,4.53
2023-03-13T04:20:34.579Z,4.10
2023-03-13T04:21:37.253Z,5.65
2023-03-13T04:22:41.057Z,4.25
2023-03-13T04:24:46.981Z,3.55
2023-03-13T04:25:49.552Z,3.40
2023-03-13T04:26:53.191Z,6.50
2023-03-13T04:27:55.890Z,3.67
2023-03-13T04:28:59.672Z,9.73
2023-03-13T04:31:05.636Z,7.72
2023-03-13T04:33:13.662Z,7.90
2023-03-13T04:34:16.183Z,6.18
2023-03-13T04:35:19.978Z,10.65
2023-03-13T04:36:22.602Z,8.98
2023-03-13T04:37:26.476Z,7.78
2023-03-13T04:38:30.479Z,5.60
2023-03-13T04:39:33.288Z,6.63
2023-03-13T04:40:37.120Z,7.25
2023-03-13T04:42:43.248Z,5.07
2023-03-13T04:43:46.128Z,5.28
2023-03-13T04:44:49.762Z,7.25
2023-03-13T04:45:54.765Z,7.03
2023-03-13T04:46:58.453Z,11.60
2023-03-13T04:48:02.446Z,8.15
2023-03-13T04:49:08.737Z,12.25
2023-03-13T04:50:11.788Z,17.42
2023-03-13T04:51:15.700Z,10.70
2023-03-13T04:53:21.877Z,26.45
2023-03-13T04:54:24.802Z,21.83
2023-03-13T04:55:28.357Z,29.42
2023-03-13T04:56:42.676Z,13.32
2023-03-13T04:57:47.091Z,6.00
2023-03-13T04:58:49.669Z,11.27
2023-03-13T04:59:53.459Z,5.78
2023-03-13T05:02:00.684Z,2.60
2023-03-13T05:03:04.765Z,6.55
2023-03-13T05:04:08.486Z,11.10
2023-03-13T05:05:11.361Z,2.00
2023-03-13T05:06:15.375Z,1.73
2023-03-13T05:07:17.937Z,1.52
2023-03-13T05:08:21.608Z,1.55
2023-03-13T05:09:24.275Z,1.83
2023-03-13T05:10:28.023Z,1.83
2023-03-13T05:11:31.077Z,1.95
2023-03-13T05:12:34.672Z,1.83
2023-03-13T05:13:37.595Z,1.73
2023-03-13T05:14:41.244Z,1.70
2023-03-13T05:15:44.429Z,1.73
2023-03-13T05:16:48.487Z,1.60
2023-03-13T05:17:52.576Z,1.30
2023-03-13T05:18:59.310Z,1.30
2023-03-13T05:20:01.854Z,1.17
2023-03-13T05:21:06.002Z,1.50
2023-03-13T05:22:08.595Z,1.17
2023-03-13T05:23:12.244Z,1.60
2023-03-13T05:24:14.882Z,1.80
2023-03-13T05:25:18.683Z,1.58
2023-03-13T05:27:24.786Z,1.17
2023-03-13T05:28:27.370Z,1.40
2023-03-13T05:29:30.912Z,1.50
2023-03-13T05:30:33.477Z,1.27
2023-03-13T05:31:37.428Z,1.95
2023-03-13T05:32:40.136Z,2.15
2023-03-13T05:33:44.014Z,2.40
2023-03-13T05:34:48.035Z,6.10
2023-03-13T05:35:51.714Z,5.80
2023-03-13T05:36:54.556Z,4.40
2023-03-13T05:37:58.771Z,7.00
2023-03-13T05:39:01.275Z,2.00
2023-03-13T05:40:05.917Z,3.08
2023-03-13T05:41:09.547Z,5.45
2023-03-13T05:42:12.379Z,4.30
2023-03-13T05:43:16.058Z,3.67
2023-03-13T05:44:19.850Z,3.20
2023-03-13T05:46:26.002Z,3.17
2023-03-13T05:47:28.848Z,3.15
2023-03-13T05:48:32.478Z,2.80
2023-03-13T05:49:35.067Z,1.73
2023-03-13T05:50:40.392Z,2.50
2023-03-13T05:51:42.879Z,2.28
2023-03-13T05:52:46.774Z,2.47
2023-03-13T05:53:49.369Z,1.90
2023-03-13T05:54:53.067Z,1.70
2023-03-13T05:55:55.681Z,2.00
2023-03-13T05:56:59.464Z,1.90
2023-03-13T05:59:05.829Z,1.42
2023-03-13T06:00:09.749Z,2.40
2023-03-13T06:01:15.252Z,2.03
2023-03-13T06:02:17.995Z,2.45
2023-03-13T06:03:21.978Z,2.50
2023-03-13T06:04:24.660Z,2.28
2023-03-13T06:05:28.354Z,1.80
2023-03-13T06:06:32.456Z,2.80
2023-03-13T06:07:36.104Z,2.85
2023-03-13T06:08:38.906Z,2.88
2023-03-13T06:09:42.487Z,3.47
2023-03-13T06:10:45.108Z,5.03
2023-03-13T06:11:48.990Z,5.75
2023-03-13T06:12:55.176Z,3.78
2023-03-13T06:13:59.017Z,3.50
2023-03-13T06:15:01.618Z,3.85
2023-03-13T06:16:05.523Z,3.42
2023-03-13T06:17:08.186Z,2.10
2023-03-13T06:18:12.002Z,2.90
2023-03-13T06:20:18.553Z,1.85
2023-03-13T06:21:21.227Z,2.13
2023-03-13T06:22:26.427Z,2.08
2023-03-13T06:23:29.247Z,1.80
2023-03-13T06:24:33.697Z,2.03
2023-03-13T06:25:36.405Z,2.20
2023-03-13T06:26:39.956Z,1.60
2023-03-13T06:27:42.445Z,1.77
2023-03-13T06:28:46.099Z,2.00
2023-03-13T06:29:48.834Z,1.90
2023-03-13T06:30:52.511Z,1.70
2023-03-13T06:31:55.260Z,1.90
2023-03-13T06:33:00.200Z,1.70
2023-03-13T06:34:02.867Z,1.80
2023-03-13T06:35:07.611Z,2.10
2023-03-13T06:36:10.659Z,2.03
2023-03-13T06:37:14.420Z,1.77
2023-03-13T06:38:18.743Z,2.05
2023-03-13T06:39:22.397Z,1.90
2023-03-13T06:40:25.265Z,1.80
2023-03-13T06:41:29.252Z,1.90
2023-03-13T06:42:31.849Z,2.00
2023-03-13T06:43:35.506Z,2.03
2023-03-13T06:44:38.124Z,2.03
2023-03-13T06:45:42.088Z,1.90
2023-03-13T06:46:44.845Z,1.70
2023-03-13T06:47:49.313Z,1.75
2023-03-13T06:48:52.261Z,1.83
2023-03-13T06:49:55.905Z,1.33
2023-03-13T06:50:59.648Z,1.40
2023-03-13T06:52:03.333Z,1.45
2023-03-13T06:53:06.069Z,1.90
2023-03-13T06:54:11.242Z,1.77
2023-03-13T06:55:13.918Z,1.77
2023-03-13T06:56:17.704Z,1.60
2023-03-13T06:57:20.243Z,1.63
2023-03-13T06:58:32.162Z,1.80
2023-03-13T06:59:36.280Z,1.60
2023-03-13T07:00:40.332Z,1.90
2023-03-13T07:01:44.130Z,1.70
2023-03-13T07:02:46.707Z,1.92
2023-03-13T07:03:50.868Z,1.52
2023-03-13T07:04:53.431Z,1.92
2023-03-13T07:06:01.071Z,1.55
2023-03-13T07:07:04.024Z,2.00
2023-03-13T07:08:08.157Z,1.83
2023-03-13T07:09:13.316Z,1.88
2023-03-13T07:10:15.849Z,2.00
2023-03-13T07:11:19.511Z,1.83
2023-03-13T07:12:23.243Z,1.60
2023-03-13T07:14:29.271Z,1.90
2023-03-13T07:15:31.783Z,2.25
2023-03-13T07:16:35.699Z,1.67
2023-03-13T07:17:39.783Z,2.00
2023-03-13T07:18:45.011Z,2.67
2023-03-13T07:19:47.532Z,2.40
2023-03-13T07:20:55.880Z,2.22
2023-03-13T07:21:59.462Z,1.88
2023-03-13T07:23:02.230Z,1.90
2023-03-13T07:24:06.613Z,1.77
2023-03-13T07:25:11.141Z,2.00
2023-03-13T07:26:16.523Z,2.10
2023-03-13T07:27:21.314Z,2.20
2023-03-13T07:28:25.748Z,1.90
2023-03-13T07:29:29.528Z,2.17
2023-03-13T07:31:35.633Z,2.30
2023-03-13T07:32:39.062Z,2.17
2023-03-13T07:33:43.403Z,1.85
2023-03-13T07:34:45.983Z,1.90
2023-03-13T07:35:50.859Z,2.20
2023-03-13T07:36:53.455Z,2.10
2023-03-13T07:37:57.101Z,2.20
2023-03-13T07:39:00.564Z,2.03
2023-03-13T07:40:05.104Z,2.22
2023-03-13T07:41:11.764Z,1.95
2023-03-13T07:42:15.466Z,2.00
2023-03-13T07:43:18.783Z,2.22
2023-03-13T07:44:22.654Z,1.90
2023-03-13T07:46:28.557Z,2.10
2023-03-13T07:47:31.083Z,1.70
2023-03-13T07:48:37.191Z,2.17
2023-03-13T07:49:43.137Z,1.80
2023-03-13T07:50:46.844Z,2.00
2023-03-13T07:51:51.361Z,1.85
2023-03-13T07:52:55.258Z,1.92
2023-03-13T07:53:57.827Z,2.20
2023-03-13T07:55:01.600Z,1.95
2023-03-13T07:56:07.697Z,1.90
2023-03-13T07:57:13.186Z,2.35
2023-03-13T07:58:16.077Z,2.20
2023-03-13T07:59:19.781Z,2.17
2023-03-13T08:00:23.531Z,2.38
2023-03-13T08:01:30.950Z,2.67
2023-03-13T08:02:35.769Z,2.03
2023-03-13T08:03:39.844Z,2.00
2023-03-13T08:04:43.704Z,2.15
2023-03-13T08:06:49.996Z,2.08
2023-03-13T08:07:52.681Z,1.80
2023-03-13T08:08:59.667Z,2.47
2023-03-13T08:10:02.228Z,2.10
2023-03-13T08:11:08.184Z,3.00
2023-03-13T08:12:14.737Z,2.03
2023-03-13T08:13:17.593Z,2.50
2023-03-13T08:14:21.323Z,2.30
2023-03-13T08:15:26.374Z,2.17
2023-03-13T08:16:32.345Z,1.80
2023-03-13T08:17:43.966Z,2.05
2023-03-13T08:18:51.438Z,1.85
2023-03-13T08:19:57.874Z,1.67
2023-03-13T08:21:09.556Z,1.95
2023-03-13T08:22:13.356Z,2.20
2023-03-13T08:24:19.312Z,1.77
2023-03-13T08:26:27.678Z,1.80
2023-03-13T08:27:32.506Z,2.05
2023-03-13T08:28:36.826Z,1.80
2023-03-13T08:29:40.572Z,2.50
2023-03-13T08:31:49.077Z,2.08
2023-03-13T08:32:51.906Z,1.92
2023-03-13T08:33:55.890Z,1.88
2023-03-13T08:34:59.429Z,2.00
2023-03-13T08:36:09.881Z,2.63
2023-03-13T08:37:17.193Z,1.90
2023-03-13T08:38:21.179Z,1.70
2023-03-13T08:39:23.939Z,1.75
2023-03-13T08:40:29.177Z,1.85
2023-03-13T08:41:36.484Z,1.88
2023-03-13T08:42:40.945Z,2.15
2023-03-13T08:43:44.794Z,2.22
2023-03-13T08:45:56.999Z,2.30
2023-03-13T08:47:00.756Z,2.28
2023-03-13T08:48:03.307Z,2.35
2023-03-13T08:49:08.715Z,2.17
2023-03-13T08:50:12.326Z,2.10
2023-03-13T08:51:16.908Z,2.08
2023-03-13T08:52:20.505Z,2.00
2023-03-13T08:53:23.011Z,2.00
2023-03-13T08:54:26.796Z,1.80
2023-03-13T08:56:35.041Z,2.10
2023-03-13T08:57:38.732Z,2.25
2023-03-13T08:58:46.074Z,2.22
2023-03-13T08:59:51.119Z,2.20
2023-03-13T09:00:54.801Z,1.90
2023-03-13T09:01:58.546Z,2.13
2023-03-13T09:03:02.171Z,1.98
2023-03-13T09:04:06.241Z,2.10
2023-03-13T09:05:10.966Z,2.22
2023-03-13T09:06:15.188Z,2.22
2023-03-13T09:07:18.837Z,1.90
2023-03-13T09:08:21.526Z,2.35
2023-03-13T09:09:25.136Z,2.03
2023-03-13T09:10:27.900Z,2.05
2023-03-13T09:11:31.688Z,1.85
2023-03-13T09:13:40.546Z,2.00
2023-03-13T09:14:45.987Z,2.00
2023-03-13T09:15:55.255Z,1.70
2023-03-13T09:16:59.651Z,2.03
2023-03-13T09:18:02.181Z,1.90
2023-03-13T09:19:06.138Z,2.13
2023-03-13T09:20:11.351Z,2.00
2023-03-13T09:21:17.905Z,1.83
2023-03-13T09:22:21.604Z,1.75
2023-03-13T09:23:26.211Z,2.00
2023-03-13T09:24:29.868Z,1.60
2023-03-13T09:25:32.378Z,1.92
2023-03-13T09:26:39.609Z,1.85
2023-03-13T09:27:44.651Z,2.10
2023-03-13T09:29:52.171Z,1.70
2023-03-13T09:30:55.085Z,1.70
2023-03-13T09:31:59.153Z,1.92
2023-03-13T09:33:02.953Z,2.25
2023-03-13T09:35:09.348Z,1.77
2023-03-13T09:36:12.839Z,1.98
2023-03-13T09:37:16.914Z,1.77
2023-03-13T09:38:19.919Z,1.70
2023-03-13T09:39:23.599Z,1.80
2023-03-13T09:40:28.172Z,1.73
2023-03-13T09:41:36.303Z,2.20
2023-03-13T09:42:47.982Z,2.28
2023-03-13T09:43:56.338Z,1.70
2023-03-13T09:45:07.643Z,1.70
2023-03-13T09:46:17.084Z,1.90
2023-03-13T09:47:29.864Z,1.70
2023-03-13T09:48:36.741Z,1.60
2023-03-13T09:49:44.242Z,1.70
2023-03-13T09:50:57.301Z,1.77
2023-03-13T09:52:11.418Z,1.98
2023-03-13T09:53:18.423Z,2.00
2023-03-13T09:54:28.221Z,1.80
2023-03-13T09:55:34.381Z,1.95
2023-03-13T09:56:42.517Z,1.75
2023-03-13T09:57:52.569Z,1.83
2023-03-13T10:00:07.201Z,1.83
2023-03-13T10:01:11.333Z,1.90
2023-03-13T10:02:25.414Z,1.80
2023-03-13T10:03:32.117Z,1.85
2023-03-13T10:04:42.009Z,1.80
2023-03-13T10:05:50.658Z,1.63
2023-03-13T10:06:54.168Z,2.03
2023-03-13T10:08:11.170Z,1.50
2023-03-13T10:09:20.818Z,1.55
2023-03-13T10:10:36.643Z,1.70
2023-03-13T10:11:46.299Z,1.90
2023-03-13T10:12:57.515Z,1.80
2023-03-13T10:14:11.613Z,1.90
2023-03-13T10:15:39.142Z,1.45
2023-03-13T10:16:48.068Z,1.50
2023-03-13T10:17:51.979Z,1.30
2023-03-13T10:18:58.181Z,1.63
2023-03-13T10:20:11.161Z,1.77
2023-03-13T10:21:19.200Z,1.80
2023-03-13T10:22:26.609Z,1.27
2023-03-13T10:23:40.991Z,1.40
2023-03-13T10:24:52.123Z,1.50
2023-03-13T10:25:55.762Z,1.35
2023-03-13T10:28:03.080Z,1.40
2023-03-13T10:29:22.447Z,1.48
2023-03-13T10:30:26.692Z,1.27
2023-03-13T10:31:35.027Z,1.65
2023-03-13T10:32:38.800Z,1.52
2023-03-13T10:33:43.918Z,1.40
2023-03-13T10:34:51.120Z,1.27
2023-03-13T10:36:07.594Z,1.50
2023-03-13T10:37:15.376Z,1.40
2023-03-13T10:38:24.628Z,1.13
2023-03-13T10:39:30.757Z,1.52
2023-03-13T10:40:34.498Z,1.40
2023-03-13T10:41:38.709Z,1.70
2023-03-13T10:42:46.249Z,1.45
2023-03-13T10:43:53.649Z,1.55
2023-03-13T10:45:02.561Z,1.48
2023-03-13T10:46:06.512Z,1.42
2023-03-13T10:47:15.446Z,1.50
2023-03-13T10:48:23.220Z,1.50
2023-03-13T10:49:27.003Z,1.40
2023-03-13T10:51:39.831Z,1.55
2023-03-13T10:52:44.560Z,1.48
2023-03-13T10:53:48.383Z,1.55
2023-03-13T10:55:57.117Z,1.40
2023-03-13T10:57:25.975Z,1.30
2023-03-13T10:59:42.497Z,1.60
2023-03-13T11:00:46.381Z,1.50
2023-03-13T11:02:54.689Z,1.20
2023-03-13T11:04:00.995Z,1.73
2023-03-13T11:05:24.677Z,1.42
2023-03-13T11:06:31.435Z,1.55
2023-03-13T11:07:38.383Z,1.20
2023-03-13T11:08:42.902Z,1.45
2023-03-13T11:09:59.813Z,1.50
2023-03-13T11:11:05.188Z,1.50
2023-03-13T11:12:15.564Z,1.40
2023-03-13T11:13:36.520Z,1.42
2023-03-13T11:14:42.959Z,1.50
2023-03-13T11:15:53.580Z,1.50
2023-03-13T11:17:02.160Z,1.70
2023-03-13T11:18:17.390Z,1.63
2023-03-13T11:19:42.718Z,1.40
2023-03-13T11:20:48.273Z,1.42
2023-03-13T11:22:07.150Z,1.60
2023-03-13T11:23:21.423Z,1.40
2023-03-13T11:24:33.191Z,1.35
2023-03-13T11:25:41.056Z,1.48
2023-03-13T11:27:02.004Z,1.52
2023-03-13T11:28:29.433Z,1.48
2023-03-13T11:29:41.925Z,1.50
2023-03-13T11:31:05.007Z,1.60
2023-03-13T11:32:22.203Z,1.52
2023-03-13T11:33:40.697Z,1.45
2023-03-13T11:34:48.257Z,1.65
2023-03-13T11:36:00.174Z,1.30
2023-03-13T11:37:11.419Z,1.48
2023-03-13T11:38:21.397Z,1.30
2023-03-13T11:39:52.684Z,1.70
2023-03-13T11:41:07.083Z,1.40
2023-03-13T11:42:26.771Z,1.60
2023-03-13T11:43:47.375Z,1.33
2023-03-13T11:44:59.893Z,1.67
2023-03-13T11:46:23.786Z,1.50
2023-03-13T11:47:42.584Z,1.40
2023-03-13T11:49:14.330Z,1.38
2023-03-13T11:50:29.113Z,1.65
2023-03-13T11:51:49.689Z,1.40
2023-03-13T11:53:21.089Z,1.67
2023-03-13T11:54:39.965Z,1.27
2023-03-13T11:55:53.373Z,1.60
2023-03-13T11:56:57.854Z,1.40
2023-03-13T11:58:18.346Z,1.50
2023-03-13T11:59:37.831Z,1.75
2023-03-13T12:00:46.459Z,1.38
2023-03-13T12:01:54.967Z,1.50
2023-03-13T12:03:05.147Z,1.70
2023-03-13T12:04:18.959Z,1.60
2023-03-13T12:05:22.389Z,1.45
2023-03-13T12:06:31.894Z,1.50
2023-03-13T12:07:40.241Z,1.40
2023-03-13T12:08:48.017Z,1.30
2023-03-13T12:09:56.754Z,1.70
2023-03-13T12:11:11.242Z,1.48
2023-03-13T12:12:24.974Z,1.60
2023-03-13T12:13:33.648Z,1.60
2023-03-13T12:14:40.956Z,1.55
2023-03-13T12:15:48.921Z,1.80
2023-03-13T12:16:58.921Z,1.90
2023-03-13T12:19:06.781Z,1.30
2023-03-13T12:20:20.137Z,1.60
2023-03-13T12:21:31.077Z,1.70
2023-03-13T12:22:39.322Z,1.65
2023-03-13T12:23:50.228Z,1.40
2023-03-13T12:24:58.432Z,1.33
2023-03-13T12:26:07.634Z,1.67
2023-03-13T12:27:16.845Z,1.50
2023-03-13T12:28:27.495Z,1.70
2023-03-13T12:29:44.589Z,1.70
2023-03-13T12:30:54.525Z,1.60
2023-03-13T12:32:04.101Z,1.77
2023-03-13T12:33:19.092Z,1.50
2023-03-13T12:34:29.134Z,1.70
2023-03-13T12:36:42.602Z,1.50
2023-03-13T12:37:51.793Z,1.80
2023-03-13T12:38:59.162Z,1.80
2023-03-13T12:40:09.820Z,1.60
2023-03-13T12:41:24.772Z,1.80
2023-03-13T12:42:41.369Z,1.13
2023-03-13T12:44:00.597Z,1.40
2023-03-13T12:45:17.651Z,1.40
2023-03-13T12:47:00.122Z,1.42
2023-03-13T12:48:38.708Z,1.58
2023-03-13T12:50:29.931Z,1.52
2023-03-13T12:51:48.092Z,1.42
2023-03-13T12:53:32.766Z,1.58
2023-03-13T12:54:56.989Z,1.65
2023-03-13T12:56:16.950Z,1.70
2023-03-13T12:57:42.336Z,1.52
2023-03-13T12:58:52.416Z,1.38
2023-03-13T13:01:07.813Z,1.65
2023-03-13T13:02:19.401Z,1.73
2023-03-13T13:03:31.402Z,1.80
2023-03-13T13:04:43.877Z,1.80
2023-03-13T13:06:09.800Z,1.45
2023-03-13T13:07:26.919Z,1.80
2023-03-13T13:08:34.163Z,1.48
2023-03-13T13:09:40.528Z,1.70
2023-03-13T13:10:43.113Z,1.92
2023-03-13T13:11:50.646Z,1.80
2023-03-13T13:13:19.619Z,1.90
2023-03-13T13:15:12.732Z,2.22
2023-03-13T13:16:22.092Z,2.10
2023-03-13T13:17:34.859Z,2.00
2023-03-13T13:18:38.752Z,1.90
2023-03-13T13:19:46.258Z,2.00
2023-03-13T13:20:51.487Z,1.92
2023-03-13T13:22:27.419Z,1.88
2023-03-13T13:23:39.852Z,1.75
2023-03-13T13:24:50.356Z,1.65
2023-03-13T13:25:56.191Z,1.85
2023-03-13T13:26:59.848Z,1.65
2023-03-13T13:28:22.888Z,1.85
2023-03-13T13:30:00.531Z,1.77
2023-03-13T13:31:24.448Z,1.80
2023-03-13T13:32:32.853Z,1.30
2023-03-13T13:33:42.402Z,1.80
2023-03-13T13:35:01.734Z,1.70
2023-03-13T13:36:43.345Z,1.67
2023-03-13T13:37:48.975Z,1.50
2023-03-13T13:38:55.393Z,1.60
2023-03-13T13:40:21.141Z,1.58
2023-03-13T13:41:43.913Z,1.88
2023-03-13T13:42:51.991Z,1.60
2023-03-13T13:44:24.311Z,1.75
2023-03-13T13:45:33.762Z,1.63
2023-03-13T13:46:36.651Z,1.58
2023-03-13T13:47:40.412Z,1.45
2023-03-13T13:48:44.687Z,2.40
2023-03-13T13:49:57.050Z,1.85
2023-03-13T13:51:26.156Z,1.77
2023-03-13T13:52:38.463Z,1.80
2023-03-13T13:53:44.961Z,1.70
2023-03-13T13:54:58.788Z,1.75
2023-03-13T13:56:10.328Z,1.67
2023-03-13T13:57:18.427Z,1.52
2023-03-13T13:58:24.910Z,1.80
2023-03-13T13:59:47.067Z,2.03
2023-03-13T14:00:54.802Z,1.65
2023-03-13T14:02:24.816Z,2.05
2023-03-13T14:03:29.886Z,1.80
2023-03-13T14:04:39.418Z,1.73
2023-03-13T14:05:44.042Z,1.90
2023-03-13T14:06:51.366Z,1.90
2023-03-13T14:08:02.063Z,1.65
2023-03-13T14:09:18.417Z,1.70
2023-03-13T14:11:39.858Z,1.58
2023-03-13T14:12:48.507Z,1.70
2023-03-13T14:14:13.555Z,1.67
2023-03-13T14:15:18.130Z,1.67
2023-03-13T14:16:25.917Z,2.15
2023-03-13T14:17:28.764Z,1.83
2023-03-13T14:18:33.499Z,2.10
2023-03-13T14:19:41.230Z,1.90
2023-03-13T14:20:55.880Z,1.60
2023-03-13T14:22:01.867Z,2.20
2023-03-13T14:23:07.599Z,1.85
2023-03-13T14:24:14.258Z,1.52
2023-03-13T14:25:41.661Z,1.67
2023-03-13T14:26:46.113Z,1.60
2023-03-13T14:27:51.668Z,1.20
2023-03-13T14:28:57.294Z,1.63
2023-03-13T14:30:03.328Z,1.92
2023-03-13T14:31:07.475Z,1.80
2023-03-13T14:32:11.621Z,1.90
2023-03-13T14:33:14.300Z,1.60
2023-03-13T14:34:18.012Z,2.10
2023-03-13T14:35:23.891Z,1.63
2023-03-13T14:36:28.017Z,1.60
2023-03-13T14:37:36.899Z,2.08
2023-03-13T14:38:41.811Z,2.00
2023-03-13T14:39:46.051Z,1.90
2023-03-13T14:40:52.023Z,1.80
2023-03-13T14:41:56.560Z,1.90
2023-03-13T14:43:01.411Z,1.95
2023-03-13T14:44:07.691Z,1.83
2023-03-13T14:45:15.166Z,1.85
2023-03-13T14:46:30.695Z,1.65
2023-03-13T14:47:34.586Z,1.77
2023-03-13T14:49:40.621Z,1.75
2023-03-13T14:50:44.601Z,1.90
2023-03-13T14:51:51.694Z,1.92
2023-03-13T14:52:59.052Z,1.70
2023-03-13T14:54:04.628Z,1.90
2023-03-13T14:55:27.407Z,1.80
2023-03-13T14:56:37.442Z,1.90
2023-03-13T14:57:56.426Z,1.85
2023-03-13T14:59:11.597Z,1.80
2023-03-13T15:00:33.400Z,1.73
2023-03-13T15:01:37.235Z,2.03
2023-03-13T15:02:39.952Z,1.75
2023-03-13T15:03:46.461Z,1.60
2023-03-13T15:04:54.519Z,1.70
2023-03-13T15:06:19.335Z,2.00
2023-03-13T15:07:22.878Z,1.63
2023-03-13T15:08:26.457Z,1.73
2023-03-13T15:09:29.216Z,1.63
2023-03-13T15:10:37.284Z,1.80
2023-03-13T15:11:44.163Z,1.70
2023-03-13T15:12:46.844Z,1.70
2023-03-13T15:13:50.619Z,1.98
2023-03-13T15:14:54.010Z,1.60
2023-03-13T15:15:57.919Z,1.40
2023-03-13T15:17:01.667Z,1.55
2023-03-13T15:18:20.047Z,1.80
2023-03-13T15:19:22.719Z,1.70
2023-03-13T15:20:26.396Z,1.60
2023-03-13T15:21:31.843Z,1.77
2023-03-13T15:22:38.948Z,1.60
2023-03-13T15:23:48.325Z,1.70
2023-03-13T15:25:05.301Z,1.67
2023-03-13T15:26:09.803Z,2.00
2023-03-13T15:28:24.637Z,1.63
2023-03-13T15:29:28.441Z,1.55
2023-03-13T15:30:32.693Z,1.85
2023-03-13T15:31:35.366Z,1.75
2023-03-13T15:32:42.971Z,1.90
2023-03-13T15:33:46.720Z,1.70
2023-03-13T15:34:50.376Z,1.65
2023-03-13T15:35:53.169Z,1.67
2023-03-13T15:36:56.890Z,1.70
2023-03-13T15:38:02.425Z,1.95
2023-03-13T15:39:09.600Z,1.70
2023-03-13T15:40:16.881Z,1.70
2023-03-13T15:41:19.862Z,1.70
2023-03-13T15:42:25.858Z,1.88
2023-03-13T15:43:29.557Z,1.77